VEJS/IXW METAR and TAF weather

Enter ICAO airport designator
Station Type Date Time Source
VEJS METAR 2020/06/02 12:00 UTC NOAA

VEJS 021200Z 00000KT 5000 HZ FEW020 SCT100 34/22 Q1004


Station Type Date Time Source
VEJS Decoded METAR 2020/06/02 12:00 UTC NOAA

Jamshedpur, India (VEJS) 22-49N 086-11E 142M
Jun 02, 2020 - 08:00 AM EDT / 2020.06.02 1200 UTC
Wind: Calm:0
Visibility: 3 mile(s):0
Sky conditions: partly cloudy
Weather: haze
Temperature: 93 F (34 C)
Heat index: 100.0 F (37.8 C):1
Dew Point: 71 F (22 C)
Relative Humidity: 49%
Pressure (altimeter): 29.65 in. Hg (1004 hPa)
ob: VEJS 021200Z 00000KT 5000 HZ FEW020 SCT100 34/22 Q1004
cycle: 12

Station Type Date Time Source
VEJS TAF 2009/11/01 09:00 UTC NOAA

TAF VEJS 010900Z 0112/0121 36004KT 2500 HZ FEW020 SCT025 SCT100
BECMG 0116/0118 00000KT 2000 HZ FEW018 SCT
BECMG 0119/0121 00000KT 1600 BR

Example: see airport list